Time;durP1;ratioP1;P1;durP2;ratioP2;P2;SDS_P1;SDS_P2;PMS_P1;PMS_P2;Temp;Humidity;BMP_temperature;BMP_pressure;BME280_temperature;BME280_humidity;BME280_pressure;Samples;Min_cycle;Max_cycle;Signal;HPM_P1;HPM_P2
2023/08/14 00:02:12;;;;;;;5.00;4.20;;;22.60;90.80;;;;;;5013755;28;20481;-51
2023/08/14 00:04:38;;;;;;;5.60;4.30;;;22.60;90.90;;;;;;5013840;28;21023;-50
2023/08/14 00:07:05;;;;;;;12.63;5.10;;;22.50;91.00;;;;;;5013437;28;20443;-49
2023/08/14 00:09:34;;;;;;;5.60;4.33;;;22.50;91.20;;;;;;5013840;28;20425;-50
2023/08/14 00:12:01;;;;;;;7.20;4.73;;;22.40;91.30;;;;;;5013638;28;20469;-50
2023/08/14 00:14:27;;;;;;;6.80;4.90;;;22.40;91.30;;;;;;5013655;28;20438;-50
2023/08/14 00:16:54;;;;;;;7.07;4.27;;;22.40;91.40;;;;;;5013209;28;20815;-50
2023/08/14 00:19:20;;;;;;;6.97;4.33;;;22.40;91.60;;;;;;5012278;28;20486;-50
2023/08/14 00:21:47;;;;;;;5.73;4.17;;;22.30;91.60;;;;;;5013476;28;20470;-50
2023/08/14 00:24:14;;;;;;;6.50;4.33;;;22.30;91.70;;;;;;5013499;28;20471;-50
2023/08/14 00:26:42;;;;;;;6.97;4.60;;;22.30;91.70;;;;;;5012992;28;20435;-51
2023/08/14 00:29:08;;;;;;;5.47;4.20;;;22.30;91.80;;;;;;5013786;28;20819;-51
2023/08/14 00:31:35;;;;;;;5.33;4.43;;;22.30;91.90;;;;;;5013534;28;20457;-51
2023/08/14 00:34:02;;;;;;;6.67;4.27;;;22.30;92.00;;;;;;5012491;28;20461;-51
2023/08/14 00:36:29;;;;;;;9.40;3.90;;;22.30;92.20;;;;;;5013542;28;20434;-51
2023/08/14 00:38:56;;;;;;;6.77;4.70;;;22.20;92.20;;;;;;5013058;28;20896;-50
2023/08/14 00:41:22;;;;;;;5.20;4.10;;;22.30;92.40;;;;;;5011999;28;20984;-51
2023/08/14 00:43:51;;;;;;;5.53;4.67;;;22.40;92.70;;;;;;5013443;28;20516;-50
2023/08/14 00:46:19;;;;;;;6.13;4.80;;;22.10;92.90;;;;;;5011820;28;20497;-50
2023/08/14 00:48:46;;;;;;;6.43;4.70;;;22.00;93.10;;;;;;5012805;28;20519;-51
2023/08/14 00:51:13;;;;;;;9.17;4.70;;;22.00;93.30;;;;;;5011723;28;20840;-49
2023/08/14 00:53:40;;;;;;;4.40;4.00;;;22.00;93.50;;;;;;5012992;28;20449;-51
2023/08/14 00:56:07;;;;;;;7.03;4.23;;;21.90;93.60;;;;;;5011490;28;20492;-51
2023/08/14 00:58:33;;;;;;;8.23;5.30;;;21.90;93.70;;;;;;5011113;28;20469;-51
2023/08/14 01:01:02;;;;;;;7.10;5.27;;;21.60;93.90;;;;;;5011235;28;20575;-50
2023/08/14 01:03:29;;;;;;;5.23;4.73;;;21.50;94.00;;;;;;5011588;28;20895;-50
2023/08/14 01:05:56;;;;;;;7.70;5.00;;;21.70;94.40;;;;;;5011274;28;20484;-50
2023/08/14 01:08:23;;;;;;;6.73;4.87;;;21.70;94.60;;;;;;5011091;28;20477;-50
2023/08/14 01:10:58;;;;;;;7.57;5.33;;;21.50;94.60;;;;;;5012664;28;20466;-50
2023/08/14 01:13:32;;;;;;;8.90;5.07;;;21.70;94.80;;;;;;5011506;28;20914;-51
2023/08/14 01:16:02;;;;;;;6.03;4.40;;;21.60;94.90;;;;;;5011504;28;20905;-51
2023/08/14 01:18:31;;;;;;;6.63;4.70;;;21.60;95.00;;;;;;5012325;28;20523;-50
2023/08/14 01:21:10;;;;;;;11.27;6.07;;;21.60;95.10;;;;;;5012579;28;20459;-50
2023/08/14 01:23:48;;;;;;;7.30;5.60;;;21.40;95.30;;;;;;5011171;28;20512;-50
2023/08/14 01:26:18;;;;;;;7.97;5.40;;;21.50;95.50;;;;;;5011184;28;20488;-50
2023/08/14 01:28:45;;;;;;;6.50;5.47;;;21.40;95.80;;;;;;5011997;28;20440;-50
2023/08/14 01:31:12;;;;;;;5.60;5.10;;;21.40;96.00;;;;;;5010843;28;20464;-50
2023/08/14 01:33:38;;;;;;;9.77;5.97;;;21.30;96.20;;;;;;5010771;28;20444;-50
2023/08/14 01:36:13;;;;;;;11.63;5.27;;;21.30;96.50;;;;;;5012260;28;20437;-50
2023/08/14 01:38:50;;;;;;;6.07;5.10;;;21.20;96.70;;;;;;5012089;28;20443;-50
2023/08/14 01:41:26;;;;;;;7.53;4.73;;;21.20;96.90;;;;;;5010963;28;20887;-50
2023/08/14 01:43:57;;;;;;;7.73;4.57;;;21.20;97.10;;;;;;5012139;28;20428;-50
2023/08/14 01:46:26;;;;;;;6.17;5.57;;;21.20;97.20;;;;;;5010821;28;20483;-49
2023/08/14 01:48:55;;;;;;;5.93;4.63;;;21.20;97.30;;;;;;5011818;28;20434;-49
2023/08/14 01:51:23;;;;;;;7.10;5.40;;;21.20;97.50;;;;;;5012073;28;20456;-50
2023/08/14 01:53:50;;;;;;;7.67;5.60;;;21.20;97.60;;;;;;5010863;28;20459;-50
2023/08/14 01:56:18;;;;;;;5.93;5.30;;;21.20;97.80;;;;;;5011966;28;20439;-52
2023/08/14 01:58:44;;;;;;;7.00;5.50;;;21.20;98.00;;;;;;5010400;28;20447;-51
2023/08/14 02:01:11;;;;;;;5.90;5.30;;;21.20;98.20;;;;;;5012466;28;20836;-50
2023/08/14 02:03:38;;;;;;;6.17;5.27;;;21.20;98.40;;;;;;5010526;28;20456;-50
2023/08/14 02:06:04;;;;;;;8.10;5.97;;;21.10;98.40;;;;;;5010550;28;20855;-51
2023/08/14 02:08:30;;;;;;;6.57;5.97;;;21.20;98.80;;;;;;5013604;28;20444;-50
2023/08/14 02:10:56;;;;;;;8.83;6.43;;;21.10;99.10;;;;;;5014552;28;20467;-51
2023/08/14 02:13:24;;;;;;;7.73;5.03;;;21.10;99.40;;;;;;5014549;28;20660;-50
2023/08/14 02:15:51;;;;;;;5.90;5.23;;;21.10;99.70;;;;;;5015888;28;20427;-51
2023/08/14 02:18:18;;;;;;;9.70;6.20;;;21.00;99.80;;;;;;5014376;28;20466;-50
2023/08/14 02:20:47;;;;;;;8.20;5.93;;;21.00;99.90;;;;;;5014510;28;20814;-52
2023/08/14 02:23:14;;;;;;;8.07;6.00;;;21.00;99.90;;;;;;5014587;28;20434;-50
2023/08/14 02:25:41;;;;;;;6.60;5.70;;;20.90;99.90;;;;;;5015602;28;20476;-50
2023/08/14 02:28:08;;;;;;;8.50;5.80;;;20.90;99.90;;;;;;5013996;28;20450;-51
2023/08/14 02:30:38;;;;;;;6.23;5.23;;;20.90;99.90;;;;;;5015549;28;20434;-49
2023/08/14 02:33:06;;;;;;;7.63;6.50;;;20.90;99.90;;;;;;5014562;28;20451;-50
2023/08/14 02:35:32;;;;;;;9.33;6.00;;;20.90;99.90;;;;;;5015603;28;20438;-50
2023/08/14 02:37:59;;;;;;;6.97;5.87;;;20.90;99.90;;;;;;5014969;28;20444;-50
2023/08/14 02:40:26;;;;;;;7.37;6.03;;;20.90;99.90;;;;;;5015502;28;20436;-51
2023/08/14 02:42:52;;;;;;;7.40;4.80;;;20.90;99.90;;;;;;5014085;28;20490;-51
2023/08/14 02:45:19;;;;;;;8.40;5.07;;;20.80;99.90;;;;;;5014121;28;20479;-51
2023/08/14 02:47:47;;;;;;;8.60;6.83;;;20.80;99.90;;;;;;5014980;28;20442;-50
2023/08/14 02:50:13;;;;;;;9.63;5.57;;;20.80;99.90;;;;;;5015233;28;20443;-51
2023/08/14 02:52:40;;;;;;;6.50;5.83;;;20.80;99.90;;;;;;5015047;28;20429;-51
2023/08/14 02:55:07;;;;;;;6.80;5.70;;;20.80;99.90;;;;;;5013779;28;20506;-50
2023/08/14 02:57:34;;;;;;;9.27;6.23;;;20.80;99.90;;;;;;5013480;28;20442;-50
2023/08/14 03:00:00;;;;;;;7.00;5.27;;;20.80;99.90;;;;;;5015006;28;20440;-49
2023/08/14 03:02:27;;;;;;;6.57;5.40;;;20.70;99.90;;;;;;5013554;28;20490;-50
2023/08/14 03:04:55;;;;;;;6.17;4.80;;;20.70;99.90;;;;;;5014878;28;20449;-51
2023/08/14 03:07:22;;;;;;;6.80;5.60;;;20.70;99.90;;;;;;5014366;28;20462;-50
2023/08/14 03:09:49;;;;;;;5.87;5.27;;;20.70;99.90;;;;;;5013680;28;20466;-50
2023/08/14 03:12:15;;;;;;;7.50;5.97;;;20.60;99.90;;;;;;5013563;28;20467;-50
2023/08/14 03:14:42;;;;;;;6.67;5.43;;;20.60;99.90;;;;;;5014798;28;20890;-50
2023/08/14 03:17:08;;;;;;;7.50;5.83;;;20.60;99.90;;;;;;5013080;28;20604;-50
2023/08/14 03:19:35;;;;;;;7.53;6.23;;;20.60;99.90;;;;;;5012008;28;20537;-50
2023/08/14 03:22:03;;;;;;;6.93;5.07;;;20.50;99.90;;;;;;5013256;28;20445;-50
2023/08/14 03:24:29;;;;;;;7.90;6.17;;;20.50;99.90;;;;;;5014464;28;20801;-51
2023/08/14 03:26:56;;;;;;;6.43;5.67;;;20.50;99.90;;;;;;5014171;28;20483;-50
2023/08/14 03:29:24;;;;;;;6.07;5.47;;;20.40;99.90;;;;;;5014597;28;20428;-50
2023/08/14 03:31:51;;;;;;;6.63;5.90;;;20.60;99.90;;;;;;5013083;28;20480;-50
2023/08/14 03:34:18;;;;;;;6.90;5.70;;;20.40;99.90;;;;;;5013059;28;20449;-50
2023/08/14 03:36:45;;;;;;;6.57;5.90;;;20.30;99.90;;;;;;5012693;28;20456;-51
2023/08/14 03:39:13;;;;;;;11.27;6.70;;;20.30;99.90;;;;;;5014608;28;20426;-51
2023/08/14 03:41:40;;;;;;;7.23;6.10;;;20.20;99.90;;;;;;5014122;28;20462;-50
2023/08/14 03:44:07;;;;;;;12.20;6.30;;;20.40;99.90;;;;;;5012884;28;20455;-50
2023/08/14 03:46:33;;;;;;;15.80;6.53;;;20.20;99.90;;;;;;5012581;28;21018;-50
2023/08/14 03:49:00;;;;;;;8.73;7.17;;;20.10;99.90;;;;;;5012664;28;20546;-49
2023/08/14 03:51:27;;;;;;;12.80;6.90;;;20.10;99.90;;;;;;5012842;28;20471;-50
2023/08/14 03:53:53;;;;;;;8.20;6.00;;;20.00;99.90;;;;;;5013963;28;20454;-50
2023/08/14 03:56:21;;;;;;;7.43;6.73;;;20.00;99.90;;;;;;5012752;28;20447;-51
2023/08/14 03:58:48;;;;;;;7.43;6.70;;;20.00;99.90;;;;;;5013695;28;20436;-50
2023/08/14 04:01:15;;;;;;;8.70;6.83;;;20.00;99.90;;;;;;5012600;28;20531;-50
2023/08/14 04:03:41;;;;;;;12.00;7.20;;;20.00;99.90;;;;;;5012683;28;20453;-50
2023/08/14 04:06:08;;;;;;;11.80;6.97;;;19.90;99.90;;;;;;5012500;28;20489;-51
2023/08/14 04:08:34;;;;;;;12.93;8.07;;;19.90;99.90;;;;;;5013507;28;20486;-51
2023/08/14 04:11:01;;;;;;;9.57;7.50;;;19.90;99.90;;;;;;5012511;28;20469;-51
2023/08/14 04:13:30;;;;;;;11.53;7.47;;;19.90;99.90;;;;;;5012518;28;20982;-51
2023/08/14 04:15:59;;;;;;;12.40;9.47;;;19.90;99.90;;;;;;5012155;28;20453;-51
2023/08/14 04:18:26;;;;;;;14.53;7.47;;;19.80;99.90;;;;;;5013254;28;20434;-51
2023/08/14 04:20:53;;;;;;;11.40;7.60;;;19.80;99.90;;;;;;5013550;28;20562;-51
2023/08/14 04:23:20;;;;;;;10.07;8.10;;;19.80;99.90;;;;;;5013643;28;20438;-51
2023/08/14 04:25:46;;;;;;;11.20;7.50;;;19.80;99.90;;;;;;5011965;28;20476;-50
2023/08/14 04:28:13;;;;;;;7.80;6.60;;;19.80;99.90;;;;;;5011794;28;20498;-51
2023/08/14 04:30:41;;;;;;;14.50;8.03;;;19.80;99.90;;;;;;5012600;28;20441;-50
2023/08/14 04:33:08;;;;;;;12.00;6.93;;;19.80;99.90;;;;;;5011852;28;20984;-50
2023/08/14 04:35:37;;;;;;;12.00;7.07;;;19.90;99.90;;;;;;5011862;28;20453;-51
2023/08/14 04:38:04;;;;;;;13.03;7.83;;;19.80;99.90;;;;;;5012752;28;20533;-51
2023/08/14 04:40:30;;;;;;;7.70;6.80;;;20.00;99.90;;;;;;5011656;28;20565;-51
2023/08/14 04:42:57;;;;;;;9.40;7.23;;;20.00;99.90;;;;;;5011755;28;20518;-51
2023/08/14 04:45:24;;;;;;;8.63;7.50;;;20.10;99.90;;;;;;5011523;28;20458;-51
2023/08/14 04:47:51;;;;;;;13.60;11.27;;;20.10;99.90;;;;;;5011382;28;20456;-50
2023/08/14 04:50:18;;;;;;;8.33;6.70;;;20.10;99.90;;;;;;5013126;28;20533;-51
2023/08/14 04:52:45;;;;;;;13.87;7.10;;;20.20;99.90;;;;;;5011582;28;20569;-51
2023/08/14 04:55:12;;;;;;;11.50;7.73;;;20.30;99.90;;;;;;5011841;28;20450;-51
2023/08/14 04:57:40;;;;;;;8.13;7.30;;;20.30;99.90;;;;;;5011255;28;20446;-52
2023/08/14 05:00:09;;;;;;;12.07;7.37;;;20.40;99.90;;;;;;5012280;28;21046;-51
2023/08/14 05:02:37;;;;;;;9.90;6.63;;;20.40;99.90;;;;;;5011651;28;20471;-51
2023/08/14 05:05:05;;;;;;;8.37;6.57;;;20.50;99.90;;;;;;5011834;28;20462;-51
2023/08/14 05:07:32;;;;;;;9.20;6.80;;;20.70;99.90;;;;;;5011365;28;20480;-50
2023/08/14 05:10:18;;;;;;;14.50;7.10;;;20.80;99.90;;;;;;5012847;28;20430;-49
2023/08/14 05:12:44;;;;;;;9.70;6.10;;;20.90;99.90;;;;;;5012608;28;20503;-51
2023/08/14 05:15:11;;;;;;;8.50;6.10;;;21.00;99.90;;;;;;5012268;28;20440;-51
2023/08/14 05:17:38;;;;;;;9.23;6.47;;;21.10;99.90;;;;;;5012052;28;20535;-50
2023/08/14 05:20:08;;;;;;;8.67;6.57;;;21.20;99.90;;;;;;5011146;28;20456;-50
2023/08/14 05:22:35;;;;;;;7.60;5.93;;;21.30;99.90;;;;;;5011031;28;20456;-51
2023/08/14 05:25:02;;;;;;;10.93;6.20;;;21.40;99.90;;;;;;5011059;28;20981;-51
2023/08/14 05:27:28;;;;;;;10.00;7.63;;;21.50;99.90;;;;;;5011231;28;20567;-53
2023/08/14 05:29:55;;;;;;;6.93;6.00;;;21.50;99.90;;;;;;5011796;28;20440;-51
2023/08/14 05:32:22;;;;;;;7.80;5.87;;;21.70;99.90;;;;;;5011511;28;20498;-50
2023/08/14 05:34:48;;;;;;;8.93;6.37;;;21.80;99.90;;;;;;5011894;28;20918;-52
2023/08/14 05:37:16;;;;;;;8.70;6.60;;;21.90;99.90;;;;;;5011497;28;20432;-51
2023/08/14 05:39:43;;;;;;;8.10;6.03;;;22.00;99.90;;;;;;5012096;28;20484;-51
2023/08/14 05:42:09;;;;;;;6.97;5.93;;;22.00;99.90;;;;;;5011162;28;20461;-52
2023/08/14 05:44:36;;;;;;;10.80;6.53;;;22.10;99.90;;;;;;5011850;28;20426;-52
2023/08/14 05:47:02;;;;;;;9.70;6.20;;;22.10;99.90;;;;;;5011571;28;20487;-52
2023/08/14 05:49:29;;;;;;;11.43;7.40;;;22.20;99.90;;;;;;5011959;28;20446;-50
2023/08/14 05:51:56;;;;;;;6.70;5.20;;;22.30;99.90;;;;;;5011655;28;20454;-51
2023/08/14 05:54:24;;;;;;;10.43;6.13;;;22.30;99.90;;;;;;5010463;28;20449;-51
2023/08/14 05:56:50;;;;;;;9.00;5.80;;;22.40;99.90;;;;;;5011066;28;20447;-51
2023/08/14 05:59:17;;;;;;;9.43;5.93;;;22.50;99.90;;;;;;5011673;28;20491;-51
2023/08/14 06:01:45;;;;;;;8.40;6.17;;;22.50;99.90;;;;;;5011398;28;20476;-50
2023/08/14 06:04:12;;;;;;;8.43;6.37;;;22.60;99.90;;;;;;5011086;28;20440;-51
2023/08/14 06:06:39;;;;;;;7.60;5.20;;;22.60;99.90;;;;;;5011101;28;20486;-51
2023/08/14 06:09:06;;;;;;;9.67;6.20;;;22.70;99.90;;;;;;5011772;28;20803;-50
2023/08/14 06:11:34;;;;;;;8.20;5.60;;;22.80;99.90;;;;;;5012011;28;21032;-51
2023/08/14 06:14:01;;;;;;;7.50;6.07;;;22.80;99.90;;;;;;5010146;28;20609;-51
2023/08/14 06:16:27;;;;;;;10.70;5.20;;;23.00;99.90;;;;;;5011378;28;20454;-52
2023/08/14 06:18:54;;;;;;;6.73;5.50;;;23.00;99.90;;;;;;5009929;28;20440;-51
2023/08/14 06:21:20;;;;;;;7.10;5.40;;;23.10;99.90;;;;;;5011538;28;20830;-52
2023/08/14 06:23:47;;;;;;;10.43;7.40;;;23.10;99.90;;;;;;5011365;28;20529;-52
2023/08/14 06:26:14;;;;;;;8.10;6.10;;;23.20;99.90;;;;;;5011308;28;20486;-52
2023/08/14 06:28:42;;;;;;;7.20;5.70;;;23.30;99.90;;;;;;5009705;28;20486;-51
2023/08/14 06:31:09;;;;;;;12.33;5.50;;;23.30;99.90;;;;;;5011311;28;21021;-51
2023/08/14 06:33:35;;;;;;;6.97;4.87;;;23.40;99.90;;;;;;5011444;28;20845;-51
2023/08/14 06:36:02;;;;;;;7.43;5.87;;;23.40;99.90;;;;;;5011089;28;20796;-53
2023/08/14 06:38:28;;;;;;;9.20;6.20;;;23.50;99.90;;;;;;5011108;28;20432;-53
2023/08/14 06:40:55;;;;;;;10.67;6.70;;;23.50;99.90;;;;;;5011098;28;20463;-51
2023/08/14 06:43:22;;;;;;;9.73;6.30;;;23.60;99.90;;;;;;5011497;28;20450;-52
2023/08/14 06:45:50;;;;;;;6.20;5.60;;;23.60;99.90;;;;;;5011258;28;20446;-51
2023/08/14 06:48:16;;;;;;;13.57;6.03;;;23.60;99.90;;;;;;5010772;28;20514;-51
2023/08/14 06:50:43;;;;;;;8.77;5.70;;;23.70;99.90;;;;;;5011204;28;20436;-51
2023/08/14 06:53:09;;;;;;;7.00;4.80;;;23.70;99.90;;;;;;5012477;28;20441;-52
2023/08/14 06:55:36;;;;;;;10.10;5.03;;;23.70;99.90;;;;;;5014812;28;20424;-51
2023/08/14 06:58:03;;;;;;;14.63;7.10;;;23.80;99.90;;;;;;5014355;28;20939;-51
2023/08/14 07:00:30;;;;;;;8.17;5.93;;;23.80;99.90;;;;;;5014539;28;20440;-51
2023/08/14 07:02:58;;;;;;;6.30;4.60;;;23.90;99.80;;;;;;5014797;28;20432;-53
2023/08/14 07:05:24;;;;;;;7.77;4.13;;;23.90;99.80;;;;;;5014461;28;21014;-51
2023/08/14 07:07:51;;;;;;;9.33;4.43;;;23.90;99.50;;;;;;5014030;28;20483;-52
2023/08/14 07:10:18;;;;;;;5.90;4.13;;;24.00;99.60;;;;;;5014493;28;20452;-51
2023/08/14 07:12:44;;;;;;;8.30;4.30;;;24.00;99.50;;;;;;5014987;28;20457;-52
2023/08/14 07:15:11;;;;;;;4.53;3.97;;;24.10;99.30;;;;;;5012835;28;20455;-51
2023/08/14 07:17:38;;;;;;;5.67;4.40;;;24.10;99.10;;;;;;5013943;28;20436;-52
2023/08/14 07:20:07;;;;;;;11.40;4.80;;;24.20;99.10;;;;;;5014128;28;20436;-51
2023/08/14 07:22:34;;;;;;;7.37;4.50;;;24.20;98.90;;;;;;5014260;28;20971;-51
2023/08/14 07:25:01;;;;;;;7.10;3.60;;;24.30;98.70;;;;;;5014497;28;20917;-51
2023/08/14 07:27:28;;;;;;;11.47;4.50;;;24.40;98.70;;;;;;5012409;28;20468;-51
2023/08/14 07:29:54;;;;;;;7.80;4.07;;;24.40;98.60;;;;;;5014444;28;20495;-52
2023/08/14 07:32:21;;;;;;;11.83;4.10;;;24.50;98.40;;;;;;5014067;28;20444;-52
2023/08/14 07:34:48;;;;;;;10.30;4.90;;;24.60;98.00;;;;;;5012511;28;20511;-52
2023/08/14 07:37:16;;;;;;;10.40;8.33;;;24.60;97.90;;;;;;5013795;28;20436;-52
2023/08/14 07:39:43;;;;;;;6.93;3.47;;;24.70;97.80;;;;;;5013961;28;20413;-51
2023/08/14 07:42:09;;;;;;;6.63;4.00;;;24.80;97.40;;;;;;5013789;28;20460;-51
2023/08/14 07:44:36;;;;;;;12.17;4.13;;;24.80;97.30;;;;;;5014076;28;20435;-51
2023/08/14 07:47:03;;;;;;;5.60;3.10;;;24.90;97.20;;;;;;5013295;28;20978;-51
2023/08/14 07:49:29;;;;;;;7.00;3.67;;;24.90;97.10;;;;;;5012471;28;20873;-51
2023/08/14 07:51:56;;;;;;;6.37;3.67;;;24.90;97.10;;;;;;5013407;28;20967;-51
2023/08/14 07:54:24;;;;;;;11.57;4.33;;;24.90;96.90;;;;;;5013725;28;20432;-51
2023/08/14 07:56:53;;;;;;;5.80;3.53;;;25.00;96.80;;;;;;5013061;28;20437;-52
2023/08/14 07:59:20;;;;;;;7.90;5.00;;;25.00;96.50;;;;;;5013897;28;20703;-50
2023/08/14 08:01:47;;;;;;;10.07;4.17;;;25.00;96.40;;;;;;5013735;28;20578;-50
2023/08/14 08:04:13;;;;;;;8.83;3.27;;;25.10;96.40;;;;;;5013051;28;20432;-50
2023/08/14 08:06:40;;;;;;;6.07;3.10;;;25.00;96.10;;;;;;5012703;28;20476;-50
2023/08/14 08:09:07;;;;;;;6.30;3.17;;;25.10;95.90;;;;;;5014038;28;20435;-50
2023/08/14 08:11:35;;;;;;;10.37;3.57;;;25.10;95.50;;;;;;5013333;28;20463;-50
2023/08/14 08:14:05;;;;;;;6.33;3.10;;;25.20;95.10;;;;;;5013457;28;20931;-50
2023/08/14 08:16:34;;;;;;;4.57;3.00;;;25.20;95.00;;;;;;5013404;28;20445;-50
2023/08/14 08:19:01;;;;;;;8.03;3.57;;;25.20;94.80;;;;;;5011965;28;20954;-50
2023/08/14 08:21:28;;;;;;;4.77;2.87;;;25.20;94.30;;;;;;5011822;28;20979;-49
2023/08/14 08:23:54;;;;;;;6.77;2.70;;;25.30;93.70;;;;;;5013196;28;20433;-49
2023/08/14 08:26:22;;;;;;;5.27;2.60;;;25.30;93.40;;;;;;5013151;28;20441;-50
2023/08/14 08:28:50;;;;;;;5.50;2.90;;;25.30;93.00;;;;;;5013009;28;20793;-52
2023/08/14 08:31:16;;;;;;;7.40;3.37;;;25.40;93.10;;;;;;5012956;28;20552;-50
2023/08/14 08:33:43;;;;;;;4.60;2.57;;;25.40;93.20;;;;;;5012811;28;20479;-49
2023/08/14 08:36:09;;;;;;;55.57;50.23;;;25.40;92.80;;;;;;5011513;28;20943;-50
2023/08/14 08:38:36;;;;;;;6.53;3.40;;;25.50;92.50;;;;;;5012713;28;20421;-50
2023/08/14 08:41:03;;;;;;;9.23;3.13;;;25.50;92.50;;;;;;5011077;28;20468;-50
2023/08/14 08:43:32;;;;;;;5.87;3.70;;;25.50;92.10;;;;;;5012599;28;20440;-50
2023/08/14 08:46:04;;;;;;;5.40;3.63;;;25.60;92.10;;;;;;5012555;28;20955;-51
2023/08/14 08:48:34;;;;;;;6.50;4.03;;;25.70;92.20;;;;;;5012282;28;20484;-50
2023/08/14 08:51:01;;;;;;;12.80;4.37;;;25.80;92.20;;;;;;5012529;28;20530;-50
2023/08/14 08:53:29;;;;;;;3.90;3.00;;;25.80;92.10;;;;;;5012761;28;20816;-50
2023/08/14 08:55:56;;;;;;;5.70;3.20;;;25.90;92.10;;;;;;5012526;28;20966;-50
2023/08/14 08:58:24;;;;;;;5.50;4.00;;;25.90;91.90;;;;;;5012011;28;20451;-50
2023/08/14 09:00:52;;;;;;;5.90;2.77;;;25.90;91.40;;;;;;5012148;28;20479;-50
2023/08/14 09:03:20;;;;;;;7.77;3.07;;;26.00;90.80;;;;;;5011800;28;20531;-50
2023/08/14 09:05:46;;;;;;;4.40;3.07;;;26.00;90.60;;;;;;5012085;28;20446;-51
2023/08/14 09:08:13;;;;;;;7.20;3.17;;;26.00;90.40;;;;;;5011682;28;20506;-50
2023/08/14 09:10:40;;;;;;;4.77;3.13;;;26.10;90.70;;;;;;5011931;28;20428;-50
2023/08/14 09:13:06;;;;;;;3.80;2.80;;;26.10;90.70;;;;;;5012326;28;20436;-51
2023/08/14 09:15:33;;;;;;;6.67;3.53;;;26.10;90.60;;;;;;5012013;28;20436;-51
2023/08/14 09:18:00;;;;;;;9.47;2.97;;;26.20;90.60;;;;;;5011623;28;20471;-51
2023/08/14 09:20:28;;;;;;;4.50;2.67;;;26.20;90.50;;;;;;5011408;28;20471;-51
2023/08/14 09:22:57;;;;;;;7.53;2.90;;;26.20;89.90;;;;;;5011965;28;20460;-51
2023/08/14 09:25:24;;;;;;;8.57;3.33;;;26.20;90.20;;;;;;5012207;28;20475;-50
2023/08/14 09:27:51;;;;;;;4.60;3.20;;;26.20;89.40;;;;;;5011922;28;20520;-50
2023/08/14 09:30:18;;;;;;;4.20;3.03;;;26.30;89.20;;;;;;5012350;28;20430;-51
2023/08/14 09:32:45;;;;;;;3.90;3.43;;;26.30;87.70;;;;;;5011626;28;20472;-51
2023/08/14 09:35:11;;;;;;;9.60;6.87;;;26.30;87.50;;;;;;5011799;28;20435;-51
2023/08/14 09:37:40;;;;;;;6.17;3.80;;;26.40;87.90;;;;;;5011318;28;20523;-50
2023/08/14 09:40:13;;;;;;;12.07;10.17;;;26.40;87.90;;;;;;5011999;28;20818;-50
2023/08/14 09:42:40;;;;;;;5.03;3.23;;;26.50;87.90;;;;;;5011685;28;20860;-50
2023/08/14 09:45:08;;;;;;;5.40;3.37;;;26.50;87.80;;;;;;5012263;28;20808;-51
2023/08/14 09:47:35;;;;;;;7.17;3.00;;;26.50;87.00;;;;;;5011085;28;20875;-50
2023/08/14 09:50:02;;;;;;;3.13;2.50;;;26.60;86.40;;;;;;5012016;28;20809;-50
2023/08/14 09:52:29;;;;;;;3.60;3.13;;;27.40;86.70;;;;;;5011573;28;20463;-50
2023/08/14 09:54:58;;;;;;;12.23;3.10;;;26.60;85.70;;;;;;5011894;28;20439;-49
2023/08/14 09:57:25;;;;;;;3.33;3.03;;;26.70;85.50;;;;;;5011282;28;20440;-49
2023/08/14 09:59:52;;;;;;;4.30;2.50;;;26.70;84.70;;;;;;5011458;28;20432;-50
2023/08/14 10:02:23;;;;;;;4.20;2.40;;;26.70;83.40;;;;;;5011152;28;20998;-50
2023/08/14 10:04:51;;;;;;;7.03;3.00;;;26.70;83.10;;;;;;5011726;28;20437;-50
2023/08/14 10:07:18;;;;;;;4.97;2.47;;;26.70;82.70;;;;;;5011236;28;20513;-50
2023/08/14 10:09:50;;;;;;;3.60;2.83;;;26.70;82.20;;;;;;5011311;28;20436;-51
2023/08/14 10:12:22;;;;;;;6.00;2.90;;;26.70;82.00;;;;;;5011501;28;20459;-51
2023/08/14 10:14:54;;;;;;;5.53;3.17;;;26.70;81.90;;;;;;5011484;28;20475;-51
2023/08/14 10:17:30;;;;;;;5.00;2.97;;;26.80;82.10;;;;;;5011034;28;20428;-52
2023/08/14 10:19:57;;;;;;;4.23;2.63;;;26.80;82.20;;;;;;5011303;28;20472;-53
2023/08/14 10:22:25;;;;;;;7.33;3.53;;;26.90;82.30;;;;;;5011234;28;20826;-50
2023/08/14 10:24:54;;;;;;;4.13;2.97;;;26.90;83.20;;;;;;5011064;28;20432;-50
2023/08/14 10:27:22;;;;;;;2.87;2.10;;;26.90;82.70;;;;;;5010930;28;20498;-51
2023/08/14 10:29:50;;;;;;;8.73;2.87;;;27.00;81.40;;;;;;5015049;28;20431;-50
2023/08/14 10:32:17;;;;;;;4.70;2.20;;;27.00;81.10;;;;;;5014836;28;20454;-50
2023/08/14 10:34:44;;;;;;;8.60;2.60;;;27.10;80.90;;;;;;5014661;28;20454;-50
2023/08/14 10:37:26;;;;;;;8.23;2.50;;;27.10;80.90;;;;;;5014837;28;20436;-50
2023/08/14 10:39:58;;;;;;;7.00;2.37;;;27.20;81.60;;;;;;5015448;28;20509;-51
2023/08/14 10:42:26;;;;;;;4.13;2.60;;;27.30;82.40;;;;;;5013639;28;20473;-51
2023/08/14 10:44:52;;;;;;;5.73;2.27;;;27.10;81.90;;;;;;5014772;28;20471;-51
2023/08/14 10:47:19;;;;;;;6.33;2.67;;;27.40;81.80;;;;;;5014402;28;20432;-51
2023/08/14 10:49:46;;;;;;;4.90;2.53;;;27.40;80.30;;;;;;5013487;28;20444;-51
2023/08/14 10:52:15;;;;;;;31.87;28.60;;;27.50;80.00;;;;;;5015051;28;20455;-50
2023/08/14 10:54:44;;;;;;;4.93;3.47;;;27.60;79.60;;;;;;5015156;28;20433;-50
2023/08/14 10:57:12;;;;;;;4.30;2.20;;;27.60;79.50;;;;;;5013138;28;20455;-51
2023/08/14 10:59:41;;;;;;;3.50;2.30;;;27.40;79.10;;;;;;5014482;28;20436;-51
2023/08/14 11:02:14;;;;;;;3.53;2.40;;;27.60;79.60;;;;;;5014444;28;20508;-51
2023/08/14 11:04:57;;;;;;;5.03;2.70;;;27.60;78.80;;;;;;5014939;28;20482;-51
2023/08/14 11:07:27;;;;;;;6.03;2.87;;;27.60;78.30;;;;;;5014138;28;20448;-50
2023/08/14 11:09:55;;;;;;;5.37;2.43;;;27.60;78.00;;;;;;5014199;28;20440;-50
2023/08/14 11:12:22;;;;;;;3.30;2.37;;;27.70;77.40;;;;;;5014475;28;20468;-50
2023/08/14 11:14:50;;;;;;;4.27;2.53;;;27.70;77.00;;;;;;5014511;28;20961;-50
2023/08/14 11:17:17;;;;;;;3.47;2.20;;;27.70;76.50;;;;;;5014016;28;20974;-50
2023/08/14 11:19:43;;;;;;;5.50;2.33;;;27.60;76.30;;;;;;5014153;28;20921;-50
2023/08/14 11:22:10;;;;;;;6.07;3.20;;;27.60;76.50;;;;;;5014384;28;20456;-51
2023/08/14 11:24:37;;;;;;;3.50;2.60;;;27.60;76.50;;;;;;5014365;28;20497;-50
2023/08/14 11:27:04;;;;;;;5.80;2.80;;;27.60;76.50;;;;;;5013732;28;20862;-50
2023/08/14 11:29:31;;;;;;;4.10;2.20;;;27.60;76.70;;;;;;5013949;28;20566;-50
2023/08/14 11:31:59;;;;;;;4.67;2.10;;;27.60;77.10;;;;;;5013770;28;20551;-51
2023/08/14 11:34:26;;;;;;;9.73;2.80;;;27.70;77.30;;;;;;5013528;28;20444;-50
2023/08/14 11:36:54;;;;;;;3.20;2.13;;;27.70;77.80;;;;;;5013518;28;20477;-52
2023/08/14 11:39:21;;;;;;;5.73;4.07;;;27.80;78.30;;;;;;5013126;28;20440;-50
2023/08/14 11:41:47;;;;;;;9.40;7.20;;;27.70;78.20;;;;;;5013442;28;20460;-51
2023/08/14 11:44:14;;;;;;;3.63;2.20;;;27.90;78.20;;;;;;5013507;28;20440;-50
2023/08/14 11:46:41;;;;;;;3.87;2.40;;;28.00;78.00;;;;;;5013578;28;20775;-50
2023/08/14 11:49:09;;;;;;;4.00;2.07;;;28.00;77.70;;;;;;5013159;28;20495;-51
2023/08/14 11:51:37;;;;;;;3.17;1.80;;;28.00;77.80;;;;;;5012190;28;20540;-50
2023/08/14 11:54:04;;;;;;;3.40;2.40;;;28.10;77.90;;;;;;5013675;28;20442;-50
2023/08/14 11:56:31;;;;;;;7.57;2.63;;;28.10;77.70;;;;;;5013434;28;20436;-51
2023/08/14 11:58:58;;;;;;;6.47;2.90;;;28.20;78.20;;;;;;5013246;28;20448;-50
2023/08/14 12:01:25;;;;;;;4.63;2.70;;;28.20;77.00;;;;;;5013362;28;20792;-50
2023/08/14 12:03:52;;;;;;;3.40;2.50;;;28.30;76.90;;;;;;5013635;28;20436;-50
2023/08/14 12:06:20;;;;;;;6.17;3.40;;;28.30;76.70;;;;;;5013909;28;20853;-50
2023/08/14 12:08:47;;;;;;;4.40;2.63;;;28.30;76.70;;;;;;5013139;28;20476;-50
2023/08/14 12:11:16;;;;;;;5.40;2.83;;;28.10;76.40;;;;;;5013329;28;20460;-50
2023/08/14 12:13:48;;;;;;;5.47;3.07;;;28.40;76.70;;;;;;5013457;28;20782;-49
2023/08/14 12:16:16;;;;;;;4.33;3.00;;;28.40;77.00;;;;;;5013516;28;20432;-50
2023/08/14 12:18:43;;;;;;;3.57;3.27;;;28.40;76.70;;;;;;5013057;28;20437;-50
2023/08/14 12:21:11;;;;;;;5.97;2.93;;;28.50;76.90;;;;;;5013165;28;20459;-51
2023/08/14 12:23:44;;;;;;;11.43;3.30;;;28.50;76.60;;;;;;5013353;28;20464;-50
2023/08/14 12:26:11;;;;;;;3.60;3.10;;;28.60;76.60;;;;;;5012972;28;20806;-50
2023/08/14 12:28:37;;;;;;;4.00;2.90;;;28.60;76.50;;;;;;5012819;28;20472;-50
2023/08/14 12:31:04;;;;;;;4.30;2.80;;;28.60;76.50;;;;;;5013228;28;20489;-50
2023/08/14 12:33:30;;;;;;;4.43;3.20;;;28.50;76.60;;;;;;5013046;28;20453;-52
2023/08/14 12:35:57;;;;;;;3.50;2.30;;;28.60;76.70;;;;;;5011012;28;20947;-50
2023/08/14 12:38:23;;;;;;;6.23;3.63;;;28.50;76.40;;;;;;5012296;28;20436;-50
2023/08/14 12:40:51;;;;;;;8.23;3.50;;;28.50;76.50;;;;;;5013035;28;20978;-50
2023/08/14 12:43:18;;;;;;;11.77;10.67;;;28.30;76.40;;;;;;5012535;28;20548;-51
2023/08/14 12:45:45;;;;;;;9.90;8.87;;;28.50;76.60;;;;;;5012925;28;20454;-51
2023/08/14 12:48:11;;;;;;;4.97;3.30;;;28.50;76.60;;;;;;5012425;28;20476;-51